Olivebridge, NY

3:38 PM EST on November 26, 2014 (GMT -0500)
Mombaccus - Catskill Native Nursery | Change Station
CLOSE
Current Station
Personal Weather Station
Location: Kerhonkson, NY
Elevation: 898 ft
Nearby Weather Stations
Active Advisory: Winter Storm Warning Active Notice: Public Information Statement

Elev 898 ft 41.83 °N, 74.30 °W | Updated 6 minutes ago

Snow
Snow
33.9 °F
Feels Like 34 °F
N
0.0
Wind Variable Wind from ENE
Gusts 0.0 mph

Today
High -- | Low -- °F
--% Chance of Precip.
Yesterday
High -- | Low -- °F
Precip. -- in
6:59 AM 4:28 PM
Waxing Crescent, 22% visible
Pressure 29.91 in
Visibility 1.0 miles
Clouds Overcast 700 ft
Windchill 34 °F
Dew Point 33 °F
Humidity 97%
Rainfall 0.62 in
Snow Depth Not available.
UV 0 out of 12
Pollen .10 out of 12
Air Quality Not available.
Flu Activity Not available.
SPECI KMGJ 262024Z AUTO 03015G21KT 1SM -SN BR OVC007 01/M01 A2991 RMK AO2 P0000 T00061011 TSNO

More Conditions Fewer Conditions

Pressure 29.91 in
Visibility 1.0 miles
Clouds Overcast 700 ft
Windchill 34 °F
Dew Point 33 °F
Humidity 97%
Rainfall 0.62 in
Snow Depth Not available.
UV 0 out of 12
Pollen .10 out of 12
Air Quality Not available.
Flu Activity Not available.
SPECI KMGJ 262024Z AUTO 03015G21KT 1SM -SN BR OVC007 01/M01 A2991 RMK AO2 P0000 T00061011 TSNO

More Conditions Fewer Conditions

10-Day Weather Forecast

Almanac

Astronomy

Nov. 26, 2014 Rise Set
Actual Time
Civil Twilight
Nautical Twilight
Astronomical Twilight
Moon
Length of Visible Light
Length of Day
Tomorrow will be .
, % of the Moon is Illuminated

Today's Extremes

State Highs State Lows

Community

WunderPhotos

Upload Photos

1,773,853 photos uploaded!

WunderBlogs® & News

Nearby

Air Quality

  Air Quality AQ Index Pollutant
Not available.

Snow Depth

Station Depth Elevation

Earthquake Activity

City Distance Mag. Time & Date
Minimum magnitude displayed is 2.5.

Coastal Water Temperatures

Place Temperature

Nearby Weather Stations